TPC142 KEYW-KDAB
Flight info
| Callsign | TPC142 |
|---|---|
| Flight time | 0h 59m |
| Altitude | 35000 |
| Route | CARNU MOANS T353 GUANO |
| Aircraft | HDJT/L-SABDGRWY/H |
Departure
| Time | 2026-04-26 01:06 |
|---|---|
| Airport | Key West International Airport (KEYW) |
Arrival
| Time | 2026-04-26 02:05 |
|---|---|
| Airport | Daytona Beach International Airport (KDAB) |
| Time | Latitude | Longitude | Altitude | Speed | Heading |
|---|---|---|---|---|---|
| 2026-04-26 00:53 | 24.55480 | -81.75735 | 10 ft | 0 kts | 360° |
| 2026-04-26 01:02 | 24.55504 | -81.75729 | 10 ft | 6 kts | 2° |
| 2026-04-26 01:02 | 24.55527 | -81.75758 | 10 ft | 8 kts | 274° |
| 2026-04-26 01:02 | 24.55525 | -81.75858 | 8 ft | 17 kts | 269° |
| 2026-04-26 01:02 | 24.55525 | -81.75992 | 4 ft | 24 kts | 271° |
| 2026-04-26 01:03 | 24.55523 | -81.76208 | 3 ft | 30 kts | 269° |
| 2026-04-26 01:03 | 24.55521 | -81.76419 | 2 ft | 28 kts | 269° |
| 2026-04-26 01:03 | 24.55519 | -81.76591 | 2 ft | 11 kts | 268° |
| 2026-04-26 01:03 | 24.55528 | -81.76636 | 3 ft | 0 kts | 309° |
| 2026-04-26 01:05 | 24.55538 | -81.76646 | 3 ft | 9 kts | 327° |
| 2026-04-26 01:05 | 24.55605 | -81.76632 | 3 ft | 12 kts | 79° |
| 2026-04-26 01:05 | 24.55610 | -81.76320 | 0 ft | 84 kts | 90° |
| 2026-04-26 01:06 | 24.55630 | -81.75451 | 183 ft | 126 kts | 90° |
| 2026-04-26 01:06 | 24.55620 | -81.74492 | 823 ft | 122 kts | 90° |
| 2026-04-26 01:06 | 24.55685 | -81.73484 | 1287 ft | 146 kts | 75° |
| 2026-04-26 01:06 | 24.56311 | -81.72503 | 1662 ft | 175 kts | 33° |
| 2026-04-26 01:07 | 24.57566 | -81.72178 | 2012 ft | 199 kts | 358° |
| 2026-04-26 01:07 | 24.58990 | -81.72346 | 2356 ft | 208 kts | 354° |
| 2026-04-26 01:07 | 24.60430 | -81.72242 | 2705 ft | 214 kts | 17° |
| 2026-04-26 01:07 | 24.61795 | -81.71523 | 3046 ft | 221 kts | 33° |
| 2026-04-26 01:08 | 24.63022 | -81.70536 | 3392 ft | 222 kts | 36° |
| 2026-04-26 01:08 | 24.64301 | -81.69530 | 3755 ft | 224 kts | 34° |
| 2026-04-26 01:08 | 24.65588 | -81.68584 | 4114 ft | 226 kts | 33° |
| 2026-04-26 01:08 | 24.66902 | -81.67616 | 4481 ft | 228 kts | 33° |
| 2026-04-26 01:09 | 24.68225 | -81.66632 | 4853 ft | 230 kts | 33° |
| 2026-04-26 01:09 | 24.69556 | -81.65641 | 5215 ft | 232 kts | 33° |
| 2026-04-26 01:09 | 24.70897 | -81.64643 | 5571 ft | 234 kts | 33° |
| 2026-04-26 01:09 | 24.72246 | -81.63639 | 5937 ft | 235 kts | 33° |
| 2026-04-26 01:10 | 24.73606 | -81.62627 | 6308 ft | 237 kts | 33° |
| 2026-04-26 01:10 | 24.74973 | -81.61609 | 6667 ft | 237 kts | 33° |
| 2026-04-26 01:10 | 24.76340 | -81.60592 | 7024 ft | 237 kts | 32° |
| 2026-04-26 01:10 | 24.77706 | -81.59574 | 7385 ft | 237 kts | 33° |
| 2026-04-26 01:11 | 24.79072 | -81.58556 | 7754 ft | 237 kts | 33° |
| 2026-04-26 01:11 | 24.80426 | -81.57547 | 8474 ft | 236 kts | 32° |
| 2026-04-26 01:11 | 24.81788 | -81.56532 | 9378 ft | 238 kts | 32° |
| 2026-04-26 01:11 | 24.83168 | -81.55504 | 10218 ft | 240 kts | 32° |
| 2026-04-26 01:12 | 24.84552 | -81.54471 | 11027 ft | 241 kts | 31° |
| 2026-04-26 01:12 | 24.85953 | -81.53426 | 11848 ft | 244 kts | 31° |
| 2026-04-26 01:12 | 24.87362 | -81.52375 | 12680 ft | 246 kts | 30° |
| 2026-04-26 01:12 | 24.88787 | -81.51311 | 13519 ft | 248 kts | 30° |
| 2026-04-26 01:13 | 24.90222 | -81.50240 | 14293 ft | 251 kts | 30° |
| 2026-04-26 01:13 | 24.91681 | -81.49150 | 15020 ft | 255 kts | 30° |
| 2026-04-26 01:13 | 24.93164 | -81.48043 | 15739 ft | 259 kts | 30° |
| 2026-04-26 01:13 | 24.94667 | -81.46919 | 16481 ft | 263 kts | 30° |
| 2026-04-26 01:14 | 24.96194 | -81.45777 | 17218 ft | 268 kts | 30° |
| 2026-04-26 01:14 | 24.97726 | -81.44632 | 17956 ft | 272 kts | 30° |
| 2026-04-26 01:14 | 24.99304 | -81.43452 | 18636 ft | 276 kts | 29° |
| 2026-04-26 01:14 | 25.00899 | -81.42257 | 19302 ft | 279 kts | 29° |
| 2026-04-26 01:15 | 25.02515 | -81.41048 | 19985 ft | 282 kts | 29° |
| 2026-04-26 01:15 | 25.04149 | -81.39824 | 20665 ft | 285 kts | 29° |
| 2026-04-26 01:15 | 25.05799 | -81.38589 | 21354 ft | 288 kts | 28° |
| 2026-04-26 01:15 | 25.07473 | -81.37335 | 22057 ft | 292 kts | 28° |
| 2026-04-26 01:16 | 25.09160 | -81.36070 | 22762 ft | 296 kts | 29° |
| 2026-04-26 01:16 | 25.10880 | -81.34782 | 23470 ft | 300 kts | 28° |
| 2026-04-26 01:16 | 25.12723 | -81.33739 | 24067 ft | 297 kts | 15° |
| 2026-04-26 01:16 | 25.14718 | -81.33151 | 24662 ft | 296 kts | 4° |
| 2026-04-26 01:17 | 25.16765 | -81.33030 | 25253 ft | 295 kts | 353° |
| 2026-04-26 01:17 | 25.18811 | -81.33305 | 25826 ft | 298 kts | 349° |
| 2026-04-26 01:17 | 25.20877 | -81.33616 | 26394 ft | 301 kts | 349° |
| 2026-04-26 01:17 | 25.22966 | -81.33917 | 26950 ft | 305 kts | 349° |
| 2026-04-26 01:18 | 25.25081 | -81.34232 | 27503 ft | 308 kts | 349° |
| 2026-04-26 01:18 | 25.27196 | -81.34550 | 28016 ft | 312 kts | 349° |
| 2026-04-26 01:18 | 25.29385 | -81.34877 | 28548 ft | 315 kts | 349° |
| 2026-04-26 01:18 | 25.31570 | -81.35202 | 29056 ft | 318 kts | 349° |
| 2026-04-26 01:19 | 25.33750 | -81.35527 | 29544 ft | 322 kts | 349° |
| 2026-04-26 01:19 | 25.35979 | -81.35860 | 30012 ft | 325 kts | 349° |
| 2026-04-26 01:19 | 25.38230 | -81.36196 | 30416 ft | 328 kts | 350° |
| 2026-04-26 01:19 | 25.40492 | -81.36534 | 30914 ft | 327 kts | 349° |
| 2026-04-26 01:20 | 25.42736 | -81.36869 | 31418 ft | 326 kts | 349° |
| 2026-04-26 01:20 | 25.44984 | -81.37205 | 31892 ft | 325 kts | 349° |
| 2026-04-26 01:20 | 25.47218 | -81.37540 | 32370 ft | 325 kts | 349° |
| 2026-04-26 01:20 | 25.49463 | -81.37875 | 32848 ft | 324 kts | 349° |
| 2026-04-26 01:21 | 25.51690 | -81.38209 | 33312 ft | 323 kts | 349° |
| 2026-04-26 01:21 | 25.53920 | -81.38543 | 33772 ft | 322 kts | 349° |
| 2026-04-26 01:21 | 25.56140 | -81.38875 | 34187 ft | 322 kts | 349° |
| 2026-04-26 01:21 | 25.58354 | -81.39207 | 34591 ft | 320 kts | 349° |
| 2026-04-26 01:22 | 25.60563 | -81.39538 | 34927 ft | 322 kts | 349° |
| 2026-04-26 01:22 | 25.62824 | -81.39881 | 34939 ft | 334 kts | 349° |
| 2026-04-26 01:22 | 25.67573 | -81.40592 | 34939 ft | 354 kts | 349° |
| 2026-04-26 01:23 | 25.72567 | -81.41342 | 34952 ft | 369 kts | 349° |
| 2026-04-26 01:23 | 25.77739 | -81.42118 | 34953 ft | 381 kts | 349° |
| 2026-04-26 01:24 | 25.83020 | -81.42913 | 34954 ft | 389 kts | 349° |
| 2026-04-26 01:24 | 25.88426 | -81.43727 | 34954 ft | 395 kts | 349° |
| 2026-04-26 01:25 | 25.93907 | -81.44553 | 34951 ft | 399 kts | 349° |
| 2026-04-26 01:25 | 25.99424 | -81.45385 | 34951 ft | 401 kts | 349° |
| 2026-04-26 01:26 | 26.04978 | -81.46224 | 34951 ft | 403 kts | 349° |
| 2026-04-26 01:26 | 26.09600 | -81.46922 | 34951 ft | 403 kts | 349° |
| 2026-04-26 01:27 | 26.15164 | -81.47764 | 34948 ft | 404 kts | 349° |
| 2026-04-26 01:27 | 26.20717 | -81.48604 | 34947 ft | 404 kts | 349° |
| 2026-04-26 01:28 | 26.26303 | -81.49451 | 34942 ft | 403 kts | 349° |
| 2026-04-26 01:28 | 26.31867 | -81.50296 | 34946 ft | 404 kts | 348° |
| 2026-04-26 01:29 | 26.37422 | -81.51139 | 34932 ft | 403 kts | 348° |
| 2026-04-26 01:29 | 26.42959 | -81.51981 | 34932 ft | 403 kts | 348° |
| 2026-04-26 01:30 | 26.48517 | -81.52827 | 34934 ft | 403 kts | 348° |
| 2026-04-26 01:30 | 26.54067 | -81.53672 | 34929 ft | 403 kts | 348° |
| 2026-04-26 01:31 | 26.59628 | -81.54520 | 34934 ft | 403 kts | 348° |
| 2026-04-26 01:31 | 26.65177 | -81.55367 | 34932 ft | 403 kts | 348° |
| 2026-04-26 01:32 | 26.70746 | -81.56217 | 34934 ft | 403 kts | 348° |
| 2026-04-26 01:32 | 26.76306 | -81.57067 | 34934 ft | 403 kts | 348° |
| 2026-04-26 01:33 | 26.81838 | -81.57914 | 34931 ft | 403 kts | 348° |
| 2026-04-26 01:33 | 26.87398 | -81.58766 | 34931 ft | 403 kts | 348° |
| 2026-04-26 01:34 | 26.92959 | -81.59619 | 34939 ft | 404 kts | 348° |
| 2026-04-26 01:34 | 26.98536 | -81.60476 | 34929 ft | 404 kts | 348° |
| 2026-04-26 01:35 | 27.04112 | -81.61332 | 34926 ft | 405 kts | 348° |
| 2026-04-26 01:35 | 27.09700 | -81.62191 | 34929 ft | 405 kts | 348° |
| 2026-04-26 01:36 | 27.15280 | -81.63051 | 34927 ft | 405 kts | 348° |
| 2026-04-26 01:37 | 27.23650 | -81.64341 | 34924 ft | 405 kts | 348° |
| 2026-04-26 01:37 | 27.29238 | -81.65204 | 34930 ft | 405 kts | 348° |
| 2026-04-26 01:38 | 27.34804 | -81.66064 | 34921 ft | 406 kts | 348° |
| 2026-04-26 01:38 | 27.40413 | -81.66932 | 34852 ft | 405 kts | 348° |
| 2026-04-26 01:38 | 27.43179 | -81.67357 | 34392 ft | 397 kts | 348° |
| 2026-04-26 01:39 | 27.45922 | -81.67784 | 33872 ft | 399 kts | 348° |
| 2026-04-26 01:39 | 27.48688 | -81.68216 | 33317 ft | 402 kts | 348° |
| 2026-04-26 01:39 | 27.51459 | -81.68645 | 32785 ft | 404 kts | 348° |
| 2026-04-26 01:39 | 27.54260 | -81.69077 | 32250 ft | 406 kts | 348° |
| 2026-04-26 01:40 | 27.57067 | -81.69513 | 31711 ft | 408 kts | 348° |
| 2026-04-26 01:40 | 27.59890 | -81.69953 | 31179 ft | 411 kts | 349° |
| 2026-04-26 01:40 | 27.62728 | -81.70393 | 30632 ft | 413 kts | 349° |
| 2026-04-26 01:40 | 27.65583 | -81.70836 | 30093 ft | 415 kts | 349° |
| 2026-04-26 01:41 | 27.68457 | -81.71284 | 29508 ft | 417 kts | 349° |
| 2026-04-26 01:41 | 27.71333 | -81.71730 | 28954 ft | 418 kts | 349° |
| 2026-04-26 01:41 | 27.74170 | -81.72172 | 28412 ft | 418 kts | 349° |
| 2026-04-26 01:41 | 27.77078 | -81.72624 | 27861 ft | 414 kts | 349° |
| 2026-04-26 01:42 | 27.79887 | -81.73062 | 27330 ft | 409 kts | 349° |
| 2026-04-26 01:42 | 27.82699 | -81.73501 | 26809 ft | 406 kts | 349° |
| 2026-04-26 01:42 | 27.85498 | -81.73938 | 26272 ft | 405 kts | 349° |
| 2026-04-26 01:42 | 27.88271 | -81.74371 | 25748 ft | 401 kts | 349° |
| 2026-04-26 01:43 | 27.91025 | -81.74800 | 25225 ft | 398 kts | 349° |
| 2026-04-26 01:43 | 27.93767 | -81.75125 | 24711 ft | 395 kts | 351° |
| 2026-04-26 01:43 | 27.96500 | -81.75422 | 24190 ft | 392 kts | 351° |
| 2026-04-26 01:43 | 27.99201 | -81.75727 | 23652 ft | 389 kts | 351° |
| 2026-04-26 01:44 | 28.01878 | -81.76030 | 23016 ft | 384 kts | 351° |
| 2026-04-26 01:44 | 28.04524 | -81.76324 | 22383 ft | 379 kts | 351° |
| 2026-04-26 01:44 | 28.07133 | -81.76614 | 21771 ft | 374 kts | 351° |
| 2026-04-26 01:44 | 28.09678 | -81.76900 | 21185 ft | 370 kts | 351° |
| 2026-04-26 01:45 | 28.12247 | -81.77188 | 20613 ft | 365 kts | 351° |
| 2026-04-26 01:45 | 28.14736 | -81.77468 | 20040 ft | 362 kts | 351° |
| 2026-04-26 01:45 | 28.17232 | -81.77747 | 19493 ft | 358 kts | 351° |
| 2026-04-26 01:45 | 28.19697 | -81.78023 | 18958 ft | 354 kts | 351° |
| 2026-04-26 01:46 | 28.22142 | -81.78298 | 18432 ft | 350 kts | 351° |
| 2026-04-26 01:46 | 28.24545 | -81.78567 | 17864 ft | 346 kts | 351° |
| 2026-04-26 01:46 | 28.26931 | -81.78835 | 17265 ft | 342 kts | 351° |
| 2026-04-26 01:46 | 28.29288 | -81.79100 | 16681 ft | 339 kts | 351° |
| 2026-04-26 01:47 | 28.31630 | -81.79363 | 16108 ft | 336 kts | 351° |
| 2026-04-26 01:47 | 28.33939 | -81.79623 | 15541 ft | 333 kts | 351° |
| 2026-04-26 01:47 | 28.36227 | -81.79880 | 14994 ft | 330 kts | 351° |
| 2026-04-26 01:47 | 28.38511 | -81.80137 | 14446 ft | 327 kts | 351° |
| 2026-04-26 01:48 | 28.40765 | -81.80391 | 13913 ft | 324 kts | 351° |
| 2026-04-26 01:48 | 28.43002 | -81.80643 | 13341 ft | 322 kts | 351° |
| 2026-04-26 01:48 | 28.45232 | -81.80895 | 12746 ft | 322 kts | 351° |
| 2026-04-26 01:48 | 28.47450 | -81.81144 | 12173 ft | 320 kts | 351° |
| 2026-04-26 01:49 | 28.49661 | -81.81394 | 11603 ft | 318 kts | 351° |
| 2026-04-26 01:49 | 28.51864 | -81.81642 | 11046 ft | 317 kts | 351° |
| 2026-04-26 01:49 | 28.54055 | -81.81889 | 10498 ft | 316 kts | 351° |
| 2026-04-26 01:49 | 28.56241 | -81.82040 | 10026 ft | 316 kts | 0° |
| 2026-04-26 01:50 | 28.58429 | -81.81666 | 10002 ft | 320 kts | 12° |
| 2026-04-26 01:50 | 28.60525 | -81.80764 | 10003 ft | 324 kts | 22° |
| 2026-04-26 01:50 | 28.62552 | -81.79689 | 9801 ft | 315 kts | 22° |
| 2026-04-26 01:50 | 28.64505 | -81.78677 | 9288 ft | 303 kts | 22° |
| 2026-04-26 01:51 | 28.66394 | -81.77696 | 8779 ft | 295 kts | 22° |
| 2026-04-26 01:51 | 28.68253 | -81.76721 | 8276 ft | 294 kts | 22° |
| 2026-04-26 01:51 | 28.70108 | -81.75748 | 7786 ft | 293 kts | 23° |
| 2026-04-26 01:51 | 28.71953 | -81.74782 | 7306 ft | 292 kts | 23° |
| 2026-04-26 01:52 | 28.73792 | -81.73819 | 6829 ft | 290 kts | 23° |
| 2026-04-26 01:52 | 28.75599 | -81.72871 | 6360 ft | 289 kts | 24° |
| 2026-04-26 01:52 | 28.77391 | -81.71852 | 5863 ft | 287 kts | 27° |
| 2026-04-26 01:52 | 28.79149 | -81.70798 | 5369 ft | 284 kts | 29° |
| 2026-04-26 01:53 | 28.80695 | -81.69427 | 5008 ft | 280 kts | 47° |
| 2026-04-26 01:53 | 28.81866 | -81.67658 | 4990 ft | 281 kts | 61° |
| 2026-04-26 01:53 | 28.82594 | -81.65600 | 4651 ft | 279 kts | 77° |
| 2026-04-26 01:53 | 28.82975 | -81.63450 | 4293 ft | 276 kts | 79° |
| 2026-04-26 01:54 | 28.83359 | -81.61308 | 3954 ft | 275 kts | 78° |
| 2026-04-26 01:54 | 28.83746 | -81.59173 | 3612 ft | 274 kts | 78° |
| 2026-04-26 01:54 | 28.84122 | -81.57049 | 3274 ft | 273 kts | 79° |
| 2026-04-26 01:54 | 28.84520 | -81.54941 | 3002 ft | 271 kts | 73° |
| 2026-04-26 01:55 | 28.85292 | -81.52984 | 3001 ft | 271 kts | 62° |
| 2026-04-26 01:55 | 28.86167 | -81.51074 | 3000 ft | 272 kts | 63° |
| 2026-04-26 01:55 | 28.87112 | -81.49210 | 3003 ft | 272 kts | 51° |
| 2026-04-26 01:55 | 28.88402 | -81.47641 | 3004 ft | 271 kts | 43° |
| 2026-04-26 01:56 | 28.89777 | -81.46164 | 3009 ft | 271 kts | 43° |
| 2026-04-26 01:56 | 28.91094 | -81.44629 | 3010 ft | 271 kts | 47° |
| 2026-04-26 01:56 | 28.92337 | -81.43015 | 3018 ft | 272 kts | 48° |
| 2026-04-26 01:56 | 28.93609 | -81.41385 | 3019 ft | 271 kts | 47° |
| 2026-04-26 01:57 | 28.94880 | -81.39795 | 3013 ft | 271 kts | 50° |
| 2026-04-26 01:57 | 28.95859 | -81.37985 | 3014 ft | 272 kts | 60° |
| 2026-04-26 01:57 | 28.96853 | -81.36153 | 3023 ft | 271 kts | 54° |
| 2026-04-26 01:57 | 28.98043 | -81.34476 | 3025 ft | 273 kts | 48° |
| 2026-04-26 01:58 | 28.99310 | -81.32859 | 3032 ft | 268 kts | 47° |
| 2026-04-26 01:58 | 29.00493 | -81.31368 | 3022 ft | 239 kts | 47° |
| 2026-04-26 01:58 | 29.01553 | -81.30041 | 3019 ft | 214 kts | 45° |
| 2026-04-26 01:58 | 29.02590 | -81.28942 | 3014 ft | 193 kts | 40° |
| 2026-04-26 01:59 | 29.03555 | -81.27969 | 3009 ft | 177 kts | 41° |
| 2026-04-26 01:59 | 29.04483 | -81.27064 | 2838 ft | 176 kts | 40° |
| 2026-04-26 01:59 | 29.05433 | -81.26169 | 2566 ft | 178 kts | 40° |
| 2026-04-26 01:59 | 29.06424 | -81.25304 | 2293 ft | 179 kts | 37° |
| 2026-04-26 02:00 | 29.07444 | -81.24469 | 2018 ft | 181 kts | 37° |
| 2026-04-26 02:00 | 29.08476 | -81.23644 | 1750 ft | 182 kts | 37° |
| 2026-04-26 02:00 | 29.09510 | -81.22833 | 1621 ft | 174 kts | 37° |
| 2026-04-26 02:00 | 29.10487 | -81.22076 | 1618 ft | 165 kts | 37° |
| 2026-04-26 02:01 | 29.11425 | -81.21345 | 1619 ft | 163 kts | 40° |
| 2026-04-26 02:01 | 29.12106 | -81.20352 | 1610 ft | 158 kts | 68° |
| 2026-04-26 02:01 | 29.12601 | -81.19229 | 1607 ft | 159 kts | 67° |
| 2026-04-26 02:01 | 29.13082 | -81.18092 | 1608 ft | 159 kts | 68° |
| 2026-04-26 02:02 | 29.13547 | -81.16956 | 1603 ft | 152 kts | 70° |
| 2026-04-26 02:02 | 29.13950 | -81.15960 | 1574 ft | 127 kts | 70° |
| 2026-04-26 02:02 | 29.14305 | -81.15078 | 1427 ft | 119 kts | 71° |
| 2026-04-26 02:02 | 29.14654 | -81.14208 | 1274 ft | 121 kts | 71° |
| 2026-04-26 02:03 | 29.15000 | -81.13356 | 1116 ft | 117 kts | 70° |
| 2026-04-26 02:03 | 29.15343 | -81.12506 | 967 ft | 117 kts | 70° |
| 2026-04-26 02:03 | 29.15683 | -81.11663 | 828 ft | 117 kts | 69° |
| 2026-04-26 02:03 | 29.16026 | -81.10815 | 680 ft | 116 kts | 69° |
| 2026-04-26 02:04 | 29.16359 | -81.09994 | 533 ft | 114 kts | 69° |
| 2026-04-26 02:04 | 29.16697 | -81.09158 | 383 ft | 116 kts | 68° |
| 2026-04-26 02:04 | 29.17037 | -81.08329 | 225 ft | 114 kts | 68° |
| 2026-04-26 02:04 | 29.17375 | -81.07497 | 58 ft | 115 kts | 68° |
| 2026-04-26 02:05 | 29.17703 | -81.06675 | 28 ft | 109 kts | 65° |
| 2026-04-26 02:05 | 29.17899 | -81.06190 | 37 ft | 29 kts | 64° |
| 2026-04-26 02:05 | 29.17956 | -81.06106 | 37 ft | 6 kts | 15° |
| 2026-04-26 02:05 | 29.18002 | -81.06109 | 36 ft | 11 kts | 343° |
| 2026-04-26 02:06 | 29.18042 | -81.06120 | 35 ft | 9 kts | 359° |
| 2026-04-26 02:06 | 29.18078 | -81.06103 | 34 ft | 0 kts | 46° |
| 2026-04-26 02:06 | 29.18109 | -81.06045 | 34 ft | 20 kts | 64° |
| 2026-04-26 02:06 | 29.18170 | -81.05894 | 35 ft | 21 kts | 65° |
| 2026-04-26 02:07 | 29.18234 | -81.05737 | 33 ft | 22 kts | 66° |
| 2026-04-26 02:07 | 29.18295 | -81.05590 | 35 ft | 18 kts | 64° |
| 2026-04-26 02:07 | 29.18346 | -81.05465 | 34 ft | 17 kts | 53° |
| 2026-04-26 02:07 | 29.18447 | -81.05470 | 34 ft | 16 kts | 334° |
| 2026-04-26 02:08 | 29.18440 | -81.05572 | 32 ft | 15 kts | 246° |
| 2026-04-26 02:08 | 29.18474 | -81.05644 | 32 ft | 12 kts | 5° |
| 2026-04-26 02:08 | 29.18538 | -81.05658 | 32 ft | 9 kts | 315° |
| 2026-04-26 02:08 | 29.18576 | -81.05701 | 33 ft | 5 kts | 342° |
| 2026-04-26 02:09 | 29.18590 | -81.05695 | 33 ft | 0 kts | 34° |